sensor_id;sensor_type;location;lat;lon;timestamp;temperature;humidity
6098;DHT22;3077;50.922;6.584;2022-09-27T00:01:13;10.50;99.90
6098;DHT22;3077;50.922;6.584;2022-09-27T00:03:40;10.50;99.90
6098;DHT22;3077;50.922;6.584;2022-09-27T00:06:17;10.50;99.90
6098;DHT22;3077;50.922;6.584;2022-09-27T00:08:44;10.50;99.90
6098;DHT22;3077;50.922;6.584;2022-09-27T00:13:48;10.50;99.90
6098;DHT22;3077;50.922;6.584;2022-09-27T00:16:13;10.40;99.90
6098;DHT22;3077;50.922;6.584;2022-09-27T00:18:39;10.40;99.90
6098;DHT22;3077;50.922;6.584;2022-09-27T00:21:08;10.30;99.90
6098;DHT22;3077;50.922;6.584;2022-09-27T00:23:34;10.30;99.90
6098;DHT22;3077;50.922;6.584;2022-09-27T00:26:00;10.30;99.90
6098;DHT22;3077;50.922;6.584;2022-09-27T00:28:26;10.20;99.90
6098;DHT22;3077;50.922;6.584;2022-09-27T00:30:52;10.20;99.90
6098;DHT22;3077;50.922;6.584;2022-09-27T00:33:18;10.20;99.90
6098;DHT22;3077;50.922;6.584;2022-09-27T00:35:44;10.20;99.90
6098;DHT22;3077;50.922;6.584;2022-09-27T00:38:11;10.20;99.90
6098;DHT22;3077;50.922;6.584;2022-09-27T00:40:37;10.20;99.90
6098;DHT22;3077;50.922;6.584;2022-09-27T00:43:20;10.20;99.90
6098;DHT22;3077;50.922;6.584;2022-09-27T00:45:52;10.20;99.90
6098;DHT22;3077;50.922;6.584;2022-09-27T00:48:22;10.20;99.90
6098;DHT22;3077;50.922;6.584;2022-09-27T00:50:51;10.20;99.90
6098;DHT22;3077;50.922;6.584;2022-09-27T00:53:23;10.20;99.90
6098;DHT22;3077;50.922;6.584;2022-09-27T00:55:56;10.10;99.90
6098;DHT22;3077;50.922;6.584;2022-09-27T00:58:29;10.20;99.90
6098;DHT22;3077;50.922;6.584;2022-09-27T01:00:58;10.20;99.90
6098;DHT22;3077;50.922;6.584;2022-09-27T01:03:32;10.20;99.90
6098;DHT22;3077;50.922;6.584;2022-09-27T01:05:59;10.20;99.90
6098;DHT22;3077;50.922;6.584;2022-09-27T01:08:25;10.20;99.90
6098;DHT22;3077;50.922;6.584;2022-09-27T01:11:21;10.20;99.90
6098;DHT22;3077;50.922;6.584;2022-09-27T01:22:16;10.20;99.90
6098;DHT22;3077;50.922;6.584;2022-09-27T01:30:46;10.20;99.90
6098;DHT22;3077;50.922;6.584;2022-09-27T01:33:30;10.20;99.90
6098;DHT22;3077;50.922;6.584;2022-09-27T01:47:15;10.20;99.90
6098;DHT22;3077;50.922;6.584;2022-09-27T01:50:09;10.20;99.90
6098;DHT22;3077;50.922;6.584;2022-09-27T01:52:46;10.30;99.90
6098;DHT22;3077;50.922;6.584;2022-09-27T01:55:15;10.30;99.90
6098;DHT22;3077;50.922;6.584;2022-09-27T01:57:54;10.20;99.90
6098;DHT22;3077;50.922;6.584;2022-09-27T02:00:22;10.20;99.90
6098;DHT22;3077;50.922;6.584;2022-09-27T02:02:58;10.20;99.90
6098;DHT22;3077;50.922;6.584;2022-09-27T02:05:30;10.30;99.90
6098;DHT22;3077;50.922;6.584;2022-09-27T02:08:02;10.30;99.90
6098;DHT22;3077;50.922;6.584;2022-09-27T02:10:36;10.20;99.90
6098;DHT22;3077;50.922;6.584;2022-09-27T02:13:19;10.30;99.90
6098;DHT22;3077;50.922;6.584;2022-09-27T02:16:05;10.30;99.90
6098;DHT22;3077;50.922;6.584;2022-09-27T02:18:52;10.30;99.90
6098;DHT22;3077;50.922;6.584;2022-09-27T02:21:20;10.30;99.90
6098;DHT22;3077;50.922;6.584;2022-09-27T02:23:52;10.30;99.90
6098;DHT22;3077;50.922;6.584;2022-09-27T02:26:28;10.20;99.90
6098;DHT22;3077;50.922;6.584;2022-09-27T02:29:12;10.10;99.90
6098;DHT22;3077;50.922;6.584;2022-09-27T02:31:39;10.10;99.90
6098;DHT22;3077;50.922;6.584;2022-09-27T02:34:19;10.10;99.90
6098;DHT22;3077;50.922;6.584;2022-09-27T02:36:46;10.10;99.90
6098;DHT22;3077;50.922;6.584;2022-09-27T02:39:13;10.10;99.90
6098;DHT22;3077;50.922;6.584;2022-09-27T02:41:39;10.10;99.90
6098;DHT22;3077;50.922;6.584;2022-09-27T02:44:09;10.00;99.90
6098;DHT22;3077;50.922;6.584;2022-09-27T03:00:19;9.80;99.90
6098;DHT22;3077;50.922;6.584;2022-09-27T03:05:28;9.80;99.90
6098;DHT22;3077;50.922;6.584;2022-09-27T03:07:56;9.80;99.90
6098;DHT22;3077;50.922;6.584;2022-09-27T03:10:25;9.80;99.90
6098;DHT22;3077;50.922;6.584;2022-09-27T03:12:51;9.80;99.90
6098;DHT22;3077;50.922;6.584;2022-09-27T03:15:17;9.80;99.90
6098;DHT22;3077;50.922;6.584;2022-09-27T03:17:43;9.80;99.90
6098;DHT22;3077;50.922;6.584;2022-09-27T03:20:09;9.90;99.90
6098;DHT22;3077;50.922;6.584;2022-09-27T03:22:35;9.90;99.90
6098;DHT22;3077;50.922;6.584;2022-09-27T03:25:02;9.80;99.90
6098;DHT22;3077;50.922;6.584;2022-09-27T03:27:28;9.90;99.90
6098;DHT22;3077;50.922;6.584;2022-09-27T03:29:54;9.90;99.90
6098;DHT22;3077;50.922;6.584;2022-09-27T03:32:19;9.90;99.90
6098;DHT22;3077;50.922;6.584;2022-09-27T03:34:45;9.80;99.90
6098;DHT22;3077;50.922;6.584;2022-09-27T03:37:10;9.80;99.90
6098;DHT22;3077;50.922;6.584;2022-09-27T03:39:36;9.70;99.90
6098;DHT22;3077;50.922;6.584;2022-09-27T03:42:02;9.70;99.90
6098;DHT22;3077;50.922;6.584;2022-09-27T03:44:27;9.70;99.90
6098;DHT22;3077;50.922;6.584;2022-09-27T03:46:53;9.70;99.90
6098;DHT22;3077;50.922;6.584;2022-09-27T03:49:18;9.60;99.90
6098;DHT22;3077;50.922;6.584;2022-09-27T03:51:44;9.60;99.90
6098;DHT22;3077;50.922;6.584;2022-09-27T03:54:10;9.60;99.90
6098;DHT22;3077;50.922;6.584;2022-09-27T03:56:35;9.60;99.90
6098;DHT22;3077;50.922;6.584;2022-09-27T03:59:01;9.60;99.90
6098;DHT22;3077;50.922;6.584;2022-09-27T04:01:27;9.60;99.90
6098;DHT22;3077;50.922;6.584;2022-09-27T04:03:53;9.60;99.90
6098;DHT22;3077;50.922;6.584;2022-09-27T04:06:19;9.60;99.90
6098;DHT22;3077;50.922;6.584;2022-09-27T04:08:45;9.60;99.90
6098;DHT22;3077;50.922;6.584;2022-09-27T04:11:11;9.60;99.90
6098;DHT22;3077;50.922;6.584;2022-09-27T04:13:38;9.60;99.90
6098;DHT22;3077;50.922;6.584;2022-09-27T04:16:04;9.60;99.90
6098;DHT22;3077;50.922;6.584;2022-09-27T04:18:29;9.50;99.90
6098;DHT22;3077;50.922;6.584;2022-09-27T04:20:55;9.50;99.90
6098;DHT22;3077;50.922;6.584;2022-09-27T04:23:21;9.50;99.90
6098;DHT22;3077;50.922;6.584;2022-09-27T04:25:48;9.40;99.90
6098;DHT22;3077;50.922;6.584;2022-09-27T04:28:13;9.30;99.90
6098;DHT22;3077;50.922;6.584;2022-09-27T04:30:40;9.40;99.90
6098;DHT22;3077;50.922;6.584;2022-09-27T04:33:06;9.40;99.90
6098;DHT22;3077;50.922;6.584;2022-09-27T04:35:32;9.40;99.90
6098;DHT22;3077;50.922;6.584;2022-09-27T04:38:16;9.30;99.90
6098;DHT22;3077;50.922;6.584;2022-09-27T04:40:44;9.40;99.90
6098;DHT22;3077;50.922;6.584;2022-09-27T04:43:10;9.40;99.90
6098;DHT22;3077;50.922;6.584;2022-09-27T04:45:35;9.30;99.90
6098;DHT22;3077;50.922;6.584;2022-09-27T04:48:01;9.30;99.90
6098;DHT22;3077;50.922;6.584;2022-09-27T04:50:27;9.30;99.90
6098;DHT22;3077;50.922;6.584;2022-09-27T04:52:53;9.30;99.90
6098;DHT22;3077;50.922;6.584;2022-09-27T04:55:21;9.30;99.90
6098;DHT22;3077;50.922;6.584;2022-09-27T04:57:48;9.30;99.90
6098;DHT22;3077;50.922;6.584;2022-09-27T05:00:14;9.30;99.90
6098;DHT22;3077;50.922;6.584;2022-09-27T05:02:42;9.30;99.90
6098;DHT22;3077;50.922;6.584;2022-09-27T05:05:08;9.30;99.90
6098;DHT22;3077;50.922;6.584;2022-09-27T05:07:36;9.40;99.90
6098;DHT22;3077;50.922;6.584;2022-09-27T05:10:02;9.30;99.90
6098;DHT22;3077;50.922;6.584;2022-09-27T05:12:28;9.30;99.90
6098;DHT22;3077;50.922;6.584;2022-09-27T05:14:53;9.40;99.90
6098;DHT22;3077;50.922;6.584;2022-09-27T05:17:19;9.40;99.90
6098;DHT22;3077;50.922;6.584;2022-09-27T05:19:47;9.40;99.90
6098;DHT22;3077;50.922;6.584;2022-09-27T05:22:12;9.40;99.90
6098;DHT22;3077;50.922;6.584;2022-09-27T05:24:38;9.40;99.90
6098;DHT22;3077;50.922;6.584;2022-09-27T05:27:04;9.40;99.90
6098;DHT22;3077;50.922;6.584;2022-09-27T05:29:33;9.40;99.90
6098;DHT22;3077;50.922;6.584;2022-09-27T05:32:00;9.40;99.90
6098;DHT22;3077;50.922;6.584;2022-09-27T05:34:26;9.40;99.90
6098;DHT22;3077;50.922;6.584;2022-09-27T05:36:52;9.40;99.90
6098;DHT22;3077;50.922;6.584;2022-09-27T05:39:17;9.40;99.90
6098;DHT22;3077;50.922;6.584;2022-09-27T05:41:44;9.40;99.90
6098;DHT22;3077;50.922;6.584;2022-09-27T05:44:11;9.40;99.90
6098;DHT22;3077;50.922;6.584;2022-09-27T05:46:38;9.40;99.90
6098;DHT22;3077;50.922;6.584;2022-09-27T05:49:04;9.50;99.90
6098;DHT22;3077;50.922;6.584;2022-09-27T05:51:30;9.50;99.90
6098;DHT22;3077;50.922;6.584;2022-09-27T05:53:55;9.60;99.90
6098;DHT22;3077;50.922;6.584;2022-09-27T05:56:21;9.60;99.90
6098;DHT22;3077;50.922;6.584;2022-09-27T05:58:47;9.60;99.90
6098;DHT22;3077;50.922;6.584;2022-09-27T06:01:13;9.60;99.90
6098;DHT22;3077;50.922;6.584;2022-09-27T06:03:38;9.60;99.90
6098;DHT22;3077;50.922;6.584;2022-09-27T06:06:05;9.60;99.90
6098;DHT22;3077;50.922;6.584;2022-09-27T06:08:34;9.60;99.90
6098;DHT22;3077;50.922;6.584;2022-09-27T06:11:03;9.60;99.90
6098;DHT22;3077;50.922;6.584;2022-09-27T06:13:29;9.70;99.90
6098;DHT22;3077;50.922;6.584;2022-09-27T06:15:55;9.70;99.90
6098;DHT22;3077;50.922;6.584;2022-09-27T06:18:21;9.70;99.90
6098;DHT22;3077;50.922;6.584;2022-09-27T06:20:46;9.60;99.90
6098;DHT22;3077;50.922;6.584;2022-09-27T06:23:14;9.60;99.90
6098;DHT22;3077;50.922;6.584;2022-09-27T06:25:41;9.60;99.90
6098;DHT22;3077;50.922;6.584;2022-09-27T06:28:07;9.70;99.90
6098;DHT22;3077;50.922;6.584;2022-09-27T06:30:41;9.80;99.90
6098;DHT22;3077;50.922;6.584;2022-09-27T06:33:09;9.80;99.90
6098;DHT22;3077;50.922;6.584;2022-09-27T06:35:36;9.80;99.90
6098;DHT22;3077;50.922;6.584;2022-09-27T06:38:04;9.80;99.90
6098;DHT22;3077;50.922;6.584;2022-09-27T06:40:30;9.80;99.90
6098;DHT22;3077;50.922;6.584;2022-09-27T06:43:07;9.80;99.90
6098;DHT22;3077;50.922;6.584;2022-09-27T06:45:33;9.80;99.90
6098;DHT22;3077;50.922;6.584;2022-09-27T06:48:00;9.80;99.90
6098;DHT22;3077;50.922;6.584;2022-09-27T06:50:36;9.90;99.90
6098;DHT22;3077;50.922;6.584;2022-09-27T06:53:04;9.90;99.90
6098;DHT22;3077;50.922;6.584;2022-09-27T06:55:30;9.90;99.90
6098;DHT22;3077;50.922;6.584;2022-09-27T06:57:57;10.00;99.90
6098;DHT22;3077;50.922;6.584;2022-09-27T07:00:42;10.00;99.90
6098;DHT22;3077;50.922;6.584;2022-09-27T07:03:09;10.10;99.90
6098;DHT22;3077;50.922;6.584;2022-09-27T07:05:36;10.10;99.90
6098;DHT22;3077;50.922;6.584;2022-09-27T07:08:03;10.10;99.90
6098;DHT22;3077;50.922;6.584;2022-09-27T07:10:30;10.10;99.90
6098;DHT22;3077;50.922;6.584;2022-09-27T07:13:06;10.10;99.90
6098;DHT22;3077;50.922;6.584;2022-09-27T07:15:35;10.20;99.90
6098;DHT22;3077;50.922;6.584;2022-09-27T07:18:02;10.20;99.90
6098;DHT22;3077;50.922;6.584;2022-09-27T07:20:28;10.30;99.90
6098;DHT22;3077;50.922;6.584;2022-09-27T07:22:54;10.30;99.90
6098;DHT22;3077;50.922;6.584;2022-09-27T07:25:20;10.20;99.90
6098;DHT22;3077;50.922;6.584;2022-09-27T07:27:46;10.20;99.90
6098;DHT22;3077;50.922;6.584;2022-09-27T07:30:12;10.20;99.90
6098;DHT22;3077;50.922;6.584;2022-09-27T07:32:38;10.20;99.90
6098;DHT22;3077;50.922;6.584;2022-09-27T07:35:05;10.20;99.90
6098;DHT22;3077;50.922;6.584;2022-09-27T07:37:32;10.30;99.90
6098;DHT22;3077;50.922;6.584;2022-09-27T07:39:59;10.30;99.90
6098;DHT22;3077;50.922;6.584;2022-09-27T07:42:25;10.40;99.90
6098;DHT22;3077;50.922;6.584;2022-09-27T07:44:51;10.40;99.90
6098;DHT22;3077;50.922;6.584;2022-09-27T07:47:17;10.40;99.90
6098;DHT22;3077;50.922;6.584;2022-09-27T07:49:44;10.40;99.90
6098;DHT22;3077;50.922;6.584;2022-09-27T07:52:09;10.40;99.90
6098;DHT22;3077;50.922;6.584;2022-09-27T07:54:35;10.40;99.90
6098;DHT22;3077;50.922;6.584;2022-09-27T07:57:01;10.40;99.90
6098;DHT22;3077;50.922;6.584;2022-09-27T07:59:27;10.40;99.90
6098;DHT22;3077;50.922;6.584;2022-09-27T08:01:53;10.40;99.90
6098;DHT22;3077;50.922;6.584;2022-09-27T08:04:20;10.40;99.90
6098;DHT22;3077;50.922;6.584;2022-09-27T08:06:46;10.40;99.90
6098;DHT22;3077;50.922;6.584;2022-09-27T08:09:12;10.50;99.90
6098;DHT22;3077;50.922;6.584;2022-09-27T08:11:37;10.40;99.90
6098;DHT22;3077;50.922;6.584;2022-09-27T08:14:03;10.40;99.90
6098;DHT22;3077;50.922;6.584;2022-09-27T08:16:29;10.50;99.90
6098;DHT22;3077;50.922;6.584;2022-09-27T08:18:57;10.60;99.90
6098;DHT22;3077;50.922;6.584;2022-09-27T08:21:22;10.70;99.90
6098;DHT22;3077;50.922;6.584;2022-09-27T08:23:48;10.90;99.90
6098;DHT22;3077;50.922;6.584;2022-09-27T08:26:14;11.00;99.90
6098;DHT22;3077;50.922;6.584;2022-09-27T08:28:39;10.90;99.90
6098;DHT22;3077;50.922;6.584;2022-09-27T08:31:05;11.00;99.90
6098;DHT22;3077;50.922;6.584;2022-09-27T08:33:31;11.00;99.90
6098;DHT22;3077;50.922;6.584;2022-09-27T08:35:56;11.10;99.90
6098;DHT22;3077;50.922;6.584;2022-09-27T08:38:22;11.20;99.90
6098;DHT22;3077;50.922;6.584;2022-09-27T08:43:34;11.30;99.90
6098;DHT22;3077;50.922;6.584;2022-09-27T08:49:09;11.60;99.90
6098;DHT22;3077;50.922;6.584;2022-09-27T08:51:37;11.60;99.90
6098;DHT22;3077;50.922;6.584;2022-09-27T08:54:17;11.60;99.90
6098;DHT22;3077;50.922;6.584;2022-09-27T08:56:45;11.60;99.90
6098;DHT22;3077;50.922;6.584;2022-09-27T08:59:15;11.70;99.90
6098;DHT22;3077;50.922;6.584;2022-09-27T09:01:49;11.70;99.90
6098;DHT22;3077;50.922;6.584;2022-09-27T09:04:32;11.80;99.90
6098;DHT22;3077;50.922;6.584;2022-09-27T09:23:07;11.60;99.90
6098;DHT22;3077;50.922;6.584;2022-09-27T09:28:30;11.70;99.90
6098;DHT22;3077;50.922;6.584;2022-09-27T09:34:21;11.70;99.90
6098;DHT22;3077;50.922;6.584;2022-09-27T09:36:49;11.60;99.90
6098;DHT22;3077;50.922;6.584;2022-09-27T09:39:39;11.80;99.90
6098;DHT22;3077;50.922;6.584;2022-09-27T09:42:19;12.00;99.90
6098;DHT22;3077;50.922;6.584;2022-09-27T09:47:47;12.10;99.90
6098;DHT22;3077;50.922;6.584;2022-09-27T09:56:04;11.90;99.90
6098;DHT22;3077;50.922;6.584;2022-09-27T09:58:38;11.80;99.90
6098;DHT22;3077;50.922;6.584;2022-09-27T10:01:42;11.90;99.90
6098;DHT22;3077;50.922;6.584;2022-09-27T10:04:23;11.80;99.90
6098;DHT22;3077;50.922;6.584;2022-09-27T10:06:51;11.90;99.90
6098;DHT22;3077;50.922;6.584;2022-09-27T10:09:21;12.00;99.90
6098;DHT22;3077;50.922;6.584;2022-09-27T10:11:48;12.10;99.90
6098;DHT22;3077;50.922;6.584;2022-09-27T10:14:16;12.10;99.90
6098;DHT22;3077;50.922;6.584;2022-09-27T10:16:47;12.10;99.90
6098;DHT22;3077;50.922;6.584;2022-09-27T10:19:30;12.10;99.90
6098;DHT22;3077;50.922;6.584;2022-09-27T10:22:18;12.00;99.90
6098;DHT22;3077;50.922;6.584;2022-09-27T10:25:00;11.90;99.90
6098;DHT22;3077;50.922;6.584;2022-09-27T10:27:36;11.80;99.90
6098;DHT22;3077;50.922;6.584;2022-09-27T10:30:03;11.80;99.90
6098;DHT22;3077;50.922;6.584;2022-09-27T10:32:32;11.60;99.90
6098;DHT22;3077;50.922;6.584;2022-09-27T10:35:42;11.60;99.90
6098;DHT22;3077;50.922;6.584;2022-09-27T10:40:42;11.50;99.90
6098;DHT22;3077;50.922;6.584;2022-09-27T10:46:23;11.60;99.90
6098;DHT22;3077;50.922;6.584;2022-09-27T10:49:20;11.70;99.90
6098;DHT22;3077;50.922;6.584;2022-09-27T10:51:51;11.70;99.90
6098;DHT22;3077;50.922;6.584;2022-09-27T10:54:26;11.70;99.90
6098;DHT22;3077;50.922;6.584;2022-09-27T10:59:24;11.90;99.90
6098;DHT22;3077;50.922;6.584;2022-09-27T11:02:54;12.10;99.90
6098;DHT22;3077;50.922;6.584;2022-09-27T11:05:13;12.10;99.90
6098;DHT22;3077;50.922;6.584;2022-09-27T11:07:51;12.20;99.90
6098;DHT22;3077;50.922;6.584;2022-09-27T11:10:26;12.30;99.90
6098;DHT22;3077;50.922;6.584;2022-09-27T11:13:17;12.40;99.90
6098;DHT22;3077;50.922;6.584;2022-09-27T11:19:01;12.50;99.90
6098;DHT22;3077;50.922;6.584;2022-09-27T11:21:46;12.60;99.90
6098;DHT22;3077;50.922;6.584;2022-09-27T11:30:14;12.80;99.90
6098;DHT22;3077;50.922;6.584;2022-09-27T11:46:34;12.70;99.90
6098;DHT22;3077;50.922;6.584;2022-09-27T12:02:40;12.20;99.90
6098;DHT22;3077;50.922;6.584;2022-09-27T12:09:35;12.20;99.90
6098;DHT22;3077;50.922;6.584;2022-09-27T12:12:15;12.20;99.90
6098;DHT22;3077;50.922;6.584;2022-09-27T12:14:45;12.10;99.90
6098;DHT22;3077;50.922;6.584;2022-09-27T12:17:18;12.10;99.90
6098;DHT22;3077;50.922;6.584;2022-09-27T12:19:53;12.10;99.90
6098;DHT22;3077;50.922;6.584;2022-09-27T12:22:47;12.10;99.90
6098;DHT22;3077;50.922;6.584;2022-09-27T12:25:16;12.10;99.90
6098;DHT22;3077;50.922;6.584;2022-09-27T12:27:46;12.10;99.90
6098;DHT22;3077;50.922;6.584;2022-09-27T12:30:14;12.00;99.90
6098;DHT22;3077;50.922;6.584;2022-09-27T12:33:05;11.90;99.90
6098;DHT22;3077;50.922;6.584;2022-09-27T12:35:39;11.60;99.90
6098;DHT22;3077;50.922;6.584;2022-09-27T12:38:13;11.20;99.90
6098;DHT22;3077;50.922;6.584;2022-09-27T12:40:43;10.80;99.90
6098;DHT22;3077;50.922;6.584;2022-09-27T12:43:11;10.60;99.90
6098;DHT22;3077;50.922;6.584;2022-09-27T12:51:08;10.50;99.90
6098;DHT22;3077;50.922;6.584;2022-09-27T13:10:08;10.10;99.90
6098;DHT22;3077;50.922;6.584;2022-09-27T13:12:38;9.80;99.90
6098;DHT22;3077;50.922;6.584;2022-09-27T13:15:33;9.80;99.90
6098;DHT22;3077;50.922;6.584;2022-09-27T13:18:00;9.80;99.90
6098;DHT22;3077;50.922;6.584;2022-09-27T13:36:31;10.60;99.90
6098;DHT22;3077;50.922;6.584;2022-09-27T13:47:12;10.90;99.90
6098;DHT22;3077;50.922;6.584;2022-09-27T13:49:42;11.00;99.90
6098;DHT22;3077;50.922;6.584;2022-09-27T13:54:54;11.20;99.90
6098;DHT22;3077;50.922;6.584;2022-09-27T14:00:22;11.40;99.90
6098;DHT22;3077;50.922;6.584;2022-09-27T14:03:04;11.60;99.90
6098;DHT22;3077;50.922;6.584;2022-09-27T14:05:40;11.80;99.90
6098;DHT22;3077;50.922;6.584;2022-09-27T14:08:28;12.10;99.90
6098;DHT22;3077;50.922;6.584;2022-09-27T14:10:55;12.30;99.90
6098;DHT22;3077;50.922;6.584;2022-09-27T14:13:23;12.50;99.90
6098;DHT22;3077;50.922;6.584;2022-09-27T14:15:50;12.60;99.90
6098;DHT22;3077;50.922;6.584;2022-09-27T14:18:16;13.00;99.90
6098;DHT22;3077;50.922;6.584;2022-09-27T14:20:48;13.40;99.90
6098;DHT22;3077;50.922;6.584;2022-09-27T14:23:18;13.80;99.90
6098;DHT22;3077;50.922;6.584;2022-09-27T14:25:46;13.80;99.90
6098;DHT22;3077;50.922;6.584;2022-09-27T14:28:41;13.70;99.90
6098;DHT22;3077;50.922;6.584;2022-09-27T14:31:27;13.50;99.90
6098;DHT22;3077;50.922;6.584;2022-09-27T14:34:05;13.40;99.90
6098;DHT22;3077;50.922;6.584;2022-09-27T14:36:34;13.20;99.90
6098;DHT22;3077;50.922;6.584;2022-09-27T14:39:32;12.80;99.90
6098;DHT22;3077;50.922;6.584;2022-09-27T14:42:04;12.50;99.90
6098;DHT22;3077;50.922;6.584;2022-09-27T14:44:31;12.20;99.90
6098;DHT22;3077;50.922;6.584;2022-09-27T14:49:33;11.90;99.90
6098;DHT22;3077;50.922;6.584;2022-09-27T14:51:59;11.80;99.90
6098;DHT22;3077;50.922;6.584;2022-09-27T14:54:27;11.60;99.90
6098;DHT22;3077;50.922;6.584;2022-09-27T14:56:55;11.20;99.90
6098;DHT22;3077;50.922;6.584;2022-09-27T15:01:57;10.70;99.90
6098;DHT22;3077;50.922;6.584;2022-09-27T15:04:25;10.50;99.90
6098;DHT22;3077;50.922;6.584;2022-09-27T15:06:54;10.40;99.90
6098;DHT22;3077;50.922;6.584;2022-09-27T15:09:21;10.40;99.90
6098;DHT22;3077;50.922;6.584;2022-09-27T15:11:52;10.40;99.90
6098;DHT22;3077;50.922;6.584;2022-09-27T15:14:20;10.40;99.90
6098;DHT22;3077;50.922;6.584;2022-09-27T15:16:48;10.60;99.90
6098;DHT22;3077;50.922;6.584;2022-09-27T15:19:16;10.90;99.90
6098;DHT22;3077;50.922;6.584;2022-09-27T15:21:46;11.40;99.90
6098;DHT22;3077;50.922;6.584;2022-09-27T15:24:48;11.70;99.90
6098;DHT22;3077;50.922;6.584;2022-09-27T15:27:21;12.10;99.90
6098;DHT22;3077;50.922;6.584;2022-09-27T15:29:53;13.00;99.90
6098;DHT22;3077;50.922;6.584;2022-09-27T15:32:24;14.00;99.90
6098;DHT22;3077;50.922;6.584;2022-09-27T15:34:51;14.40;99.90
6098;DHT22;3077;50.922;6.584;2022-09-27T15:37:27;14.60;99.90
6098;DHT22;3077;50.922;6.584;2022-09-27T15:40:51;15.00;99.90
6098;DHT22;3077;50.922;6.584;2022-09-27T15:43:00;15.40;99.90
6098;DHT22;3077;50.922;6.584;2022-09-27T15:45:32;15.30;99.90
6098;DHT22;3077;50.922;6.584;2022-09-27T15:48:17;14.80;99.90
6098;DHT22;3077;50.922;6.584;2022-09-27T15:50:45;14.20;99.90
6098;DHT22;3077;50.922;6.584;2022-09-27T15:53:11;13.80;99.90
6098;DHT22;3077;50.922;6.584;2022-09-27T15:55:43;13.60;99.90
6098;DHT22;3077;50.922;6.584;2022-09-27T16:00:50;13.70;99.90
6098;DHT22;3077;50.922;6.584;2022-09-27T16:03:16;13.50;99.90
6098;DHT22;3077;50.922;6.584;2022-09-27T16:05:42;13.20;99.90
6098;DHT22;3077;50.922;6.584;2022-09-27T16:08:09;13.00;99.90
6098;DHT22;3077;50.922;6.584;2022-09-27T16:10:37;12.90;99.90
6098;DHT22;3077;50.922;6.584;2022-09-27T16:13:03;12.70;99.90
6098;DHT22;3077;50.922;6.584;2022-09-27T16:15:29;12.60;99.90
6098;DHT22;3077;50.922;6.584;2022-09-27T16:17:55;12.40;99.90
6098;DHT22;3077;50.922;6.584;2022-09-27T16:20:24;12.20;99.90
6098;DHT22;3077;50.922;6.584;2022-09-27T16:22:54;12.10;99.90
6098;DHT22;3077;50.922;6.584;2022-09-27T16:25:21;12.00;99.90
6098;DHT22;3077;50.922;6.584;2022-09-27T16:27:47;11.80;99.90
6098;DHT22;3077;50.922;6.584;2022-09-27T16:30:14;11.70;99.90
6098;DHT22;3077;50.922;6.584;2022-09-27T16:32:41;11.60;99.90
6098;DHT22;3077;50.922;6.584;2022-09-27T16:35:08;11.50;99.90
6098;DHT22;3077;50.922;6.584;2022-09-27T16:37:34;11.50;99.90
6098;DHT22;3077;50.922;6.584;2022-09-27T16:40:00;11.40;99.90
6098;DHT22;3077;50.922;6.584;2022-09-27T16:42:26;11.40;99.90
6098;DHT22;3077;50.922;6.584;2022-09-27T16:44:52;11.50;99.90
6098;DHT22;3077;50.922;6.584;2022-09-27T16:47:18;11.40;99.90
6098;DHT22;3077;50.922;6.584;2022-09-27T16:49:44;11.50;99.90
6098;DHT22;3077;50.922;6.584;2022-09-27T16:52:29;11.50;99.90
6098;DHT22;3077;50.922;6.584;2022-09-27T16:54:56;11.40;99.90
6098;DHT22;3077;50.922;6.584;2022-09-27T16:57:22;11.50;99.90
6098;DHT22;3077;50.922;6.584;2022-09-27T16:59:48;11.50;99.90
6098;DHT22;3077;50.922;6.584;2022-09-27T17:02:13;11.50;99.90
6098;DHT22;3077;50.922;6.584;2022-09-27T17:04:39;11.50;99.90
6098;DHT22;3077;50.922;6.584;2022-09-27T17:07:05;11.50;99.90
6098;DHT22;3077;50.922;6.584;2022-09-27T17:09:31;11.50;99.90
6098;DHT22;3077;50.922;6.584;2022-09-27T17:11:56;11.50;99.90
6098;DHT22;3077;50.922;6.584;2022-09-27T17:14:22;11.40;99.90
6098;DHT22;3077;50.922;6.584;2022-09-27T17:16:48;11.40;99.90
6098;DHT22;3077;50.922;6.584;2022-09-27T17:19:15;11.40;99.90
6098;DHT22;3077;50.922;6.584;2022-09-27T17:21:43;11.40;99.90
6098;DHT22;3077;50.922;6.584;2022-09-27T17:24:09;11.40;99.90
6098;DHT22;3077;50.922;6.584;2022-09-27T17:26:34;11.40;99.90
6098;DHT22;3077;50.922;6.584;2022-09-27T17:29:00;11.40;99.90
6098;DHT22;3077;50.922;6.584;2022-09-27T17:31:27;11.40;99.90
6098;DHT22;3077;50.922;6.584;2022-09-27T17:33:53;11.50;99.90
6098;DHT22;3077;50.922;6.584;2022-09-27T17:36:21;11.50;99.90
6098;DHT22;3077;50.922;6.584;2022-09-27T17:38:49;11.60;99.90
6098;DHT22;3077;50.922;6.584;2022-09-27T17:41:20;11.50;99.90
6098;DHT22;3077;50.922;6.584;2022-09-27T17:43:52;11.50;99.90
6098;DHT22;3077;50.922;6.584;2022-09-27T17:46:24;11.40;99.90
6098;DHT22;3077;50.922;6.584;2022-09-27T17:48:50;11.40;99.90
6098;DHT22;3077;50.922;6.584;2022-09-27T17:51:36;11.30;99.90
6098;DHT22;3077;50.922;6.584;2022-09-27T17:54:03;11.30;99.90
6098;DHT22;3077;50.922;6.584;2022-09-27T17:56:29;11.30;99.90
6098;DHT22;3077;50.922;6.584;2022-09-27T17:58:57;11.40;99.90
6098;DHT22;3077;50.922;6.584;2022-09-27T18:01:24;11.40;99.90
6098;DHT22;3077;50.922;6.584;2022-09-27T18:03:54;11.40;99.90
6098;DHT22;3077;50.922;6.584;2022-09-27T18:06:20;11.30;99.90
6098;DHT22;3077;50.922;6.584;2022-09-27T18:08:47;11.30;99.90
6098;DHT22;3077;50.922;6.584;2022-09-27T18:11:16;11.40;99.90
6098;DHT22;3077;50.922;6.584;2022-09-27T18:13:43;11.40;99.90
6098;DHT22;3077;50.922;6.584;2022-09-27T18:16:10;11.30;99.90
6098;DHT22;3077;50.922;6.584;2022-09-27T18:18:37;11.20;99.90
6098;DHT22;3077;50.922;6.584;2022-09-27T18:21:09;11.20;99.90
6098;DHT22;3077;50.922;6.584;2022-09-27T18:23:43;11.10;99.90
6098;DHT22;3077;50.922;6.584;2022-09-27T18:26:09;11.10;99.90
6098;DHT22;3077;50.922;6.584;2022-09-27T18:28:40;11.10;99.90
6098;DHT22;3077;50.922;6.584;2022-09-27T18:31:12;11.00;99.90
6098;DHT22;3077;50.922;6.584;2022-09-27T18:33:39;11.00;99.90
6098;DHT22;3077;50.922;6.584;2022-09-27T18:36:06;11.00;99.90
6098;DHT22;3077;50.922;6.584;2022-09-27T18:38:32;11.00;99.90
6098;DHT22;3077;50.922;6.584;2022-09-27T18:41:18;10.90;99.90
6098;DHT22;3077;50.922;6.584;2022-09-27T18:43:45;10.90;99.90
6098;DHT22;3077;50.922;6.584;2022-09-27T18:46:14;10.90;99.90
6098;DHT22;3077;50.922;6.584;2022-09-27T18:48:41;10.90;99.90
6098;DHT22;3077;50.922;6.584;2022-09-27T18:51:13;10.90;99.90
6098;DHT22;3077;50.922;6.584;2022-09-27T18:53:39;11.00;99.90
6098;DHT22;3077;50.922;6.584;2022-09-27T18:56:17;11.00;99.90
6098;DHT22;3077;50.922;6.584;2022-09-27T18:58:43;11.00;99.90
6098;DHT22;3077;50.922;6.584;2022-09-27T19:01:12;11.00;99.90
6098;DHT22;3077;50.922;6.584;2022-09-27T19:03:39;11.00;99.90
6098;DHT22;3077;50.922;6.584;2022-09-27T19:06:17;11.00;99.90
6098;DHT22;3077;50.922;6.584;2022-09-27T19:08:43;11.00;99.90
6098;DHT22;3077;50.922;6.584;2022-09-27T19:11:14;11.00;99.90
6098;DHT22;3077;50.922;6.584;2022-09-27T19:13:41;11.00;99.90
6098;DHT22;3077;50.922;6.584;2022-09-27T19:16:07;11.00;99.90
6098;DHT22;3077;50.922;6.584;2022-09-27T19:18:35;11.00;99.90
6098;DHT22;3077;50.922;6.584;2022-09-27T19:21:07;10.90;99.90
6098;DHT22;3077;50.922;6.584;2022-09-27T19:23:33;11.00;99.90
6098;DHT22;3077;50.922;6.584;2022-09-27T19:26:00;11.00;99.90
6098;DHT22;3077;50.922;6.584;2022-09-27T19:28:27;10.90;99.90
6098;DHT22;3077;50.922;6.584;2022-09-27T19:30:53;10.90;99.90
6098;DHT22;3077;50.922;6.584;2022-09-27T19:33:18;10.90;99.90